메인 페이지
METAR-TAF:

METAR-TAF

공항 :

블라디캅카스, 러시아

위도: 43-12-18N, 경도: 044-36-24E, 고도: 510m

현재 날씨관측

예보는 40분 전, 09:30시(UTC)에 발표되었습니다.
여러 방향의 바람 2kt
온도 7°C
습도 53%
기압 1017 hPa
시정 10km 이상

METAR: URMO 120930Z VRB01MPS 9999 NSC 07/M02 Q1017 R09/010070 NOSIG RMK QFE719/0959

시각: 13:10 (10:10 UTC)

예보

예보는 2 시간 10분 전, 08:00시(UTC)에 발표되었습니다.
예보 대상 시간: 12일 09시부터 12일 18시까지 (UTC)
6kt, 순간 최대 풍속 16kt
시정 10km 이상
고도 4000ft 상공 구름 보통

TAF: URMO 120800Z 1209/1218 10003G08MPS 9999 SCT040

4,000개 이상의 공항 관측 자료 및 예보 (METAR 및 TAF 보고).

지도상에서 검색 가능한 기상관측소가 노란 점과 빨간 점으로 표시되어 있습니다.

기상관측소 명을 보려면 표시 위로 마우스를 이동하세요.

날씨 관측과 예보를 보려면 클릭하세요.

지도 변경 : 확대하려면 엑스 표시가 있는 녹색 버튼, 축소하려면 빼기 표시가 있는 녹색 버튼, 다음 페이지의 지도를 보려면 녹색 화살표를 클릭하세요.


METAR-TAF: